sensor_id;sensor_type;location;lat;lon;timestamp;pressure;altitude;pressure_sealevel;temperature;humidity
5814;BME280;2933;52.302;8.134;2023-04-09T00:04:21;101594.97;;;5.82;100.00
5814;BME280;2933;52.302;8.134;2023-04-09T00:09:24;101596.22;;;5.64;100.00
5814;BME280;2933;52.302;8.134;2023-04-09T00:14:26;101598.13;;;5.56;100.00
5814;BME280;2933;52.302;8.134;2023-04-09T00:19:27;101593.09;;;5.49;100.00
5814;BME280;2933;52.302;8.134;2023-04-09T00:24:30;101587.41;;;5.32;100.00
5814;BME280;2933;52.302;8.134;2023-04-09T00:29:32;101578.28;;;5.14;100.00
5814;BME280;2933;52.302;8.134;2023-04-09T00:34:34;101580.50;;;4.90;100.00
5814;BME280;2933;52.302;8.134;2023-04-09T00:39:37;101575.50;;;4.79;100.00
5814;BME280;2933;52.302;8.134;2023-04-09T00:44:38;101574.91;;;4.66;100.00
5814;BME280;2933;52.302;8.134;2023-04-09T00:49:40;101570.59;;;4.65;100.00
5814;BME280;2933;52.302;8.134;2023-04-09T00:54:43;101574.47;;;4.41;100.00
5814;BME280;2933;52.302;8.134;2023-04-09T00:59:44;101576.50;;;4.24;100.00
5814;BME280;2933;52.302;8.134;2023-04-09T01:04:46;101571.44;;;4.17;100.00
5814;BME280;2933;52.302;8.134;2023-04-09T01:09:54;101563.75;;;4.14;100.00
5814;BME280;2933;52.302;8.134;2023-04-09T01:15:04;101563.06;;;4.03;100.00
5814;BME280;2933;52.302;8.134;2023-04-09T01:20:09;101567.66;;;3.84;100.00
5814;BME280;2933;52.302;8.134;2023-04-09T01:25:21;101570.34;;;3.79;100.00
5814;BME280;2933;52.302;8.134;2023-04-09T01:30:30;101558.34;;;3.74;100.00
5814;BME280;2933;52.302;8.134;2023-04-09T01:35:32;101565.50;;;3.56;100.00
5814;BME280;2933;52.302;8.134;2023-04-09T01:40:34;101571.69;;;3.46;100.00
5814;BME280;2933;52.302;8.134;2023-04-09T01:45:37;101572.56;;;3.42;100.00
5814;BME280;2933;52.302;8.134;2023-04-09T01:50:39;101575.28;;;3.32;100.00
5814;BME280;2933;52.302;8.134;2023-04-09T01:55:41;101567.50;;;3.35;100.00
5814;BME280;2933;52.302;8.134;2023-04-09T02:00:46;101571.03;;;3.30;100.00
5814;BME280;2933;52.302;8.134;2023-04-09T02:05:53;101562.31;;;3.37;100.00
5814;BME280;2933;52.302;8.134;2023-04-09T02:10:57;101562.31;;;3.38;100.00
5814;BME280;2933;52.302;8.134;2023-04-09T02:16:00;101559.78;;;3.34;100.00
5814;BME280;2933;52.302;8.134;2023-04-09T02:21:04;101557.47;;;3.14;100.00
5814;BME280;2933;52.302;8.134;2023-04-09T02:26:05;101554.06;;;3.07;100.00
5814;BME280;2933;52.302;8.134;2023-04-09T02:31:08;101564.28;;;3.18;100.00
5814;BME280;2933;52.302;8.134;2023-04-09T02:36:10;101548.00;;;3.13;100.00
5814;BME280;2933;52.302;8.134;2023-04-09T02:41:12;101546.38;;;3.04;100.00
5814;BME280;2933;52.302;8.134;2023-04-09T02:46:15;101544.66;;;3.06;100.00
5814;BME280;2933;52.302;8.134;2023-04-09T02:51:17;101547.44;;;2.89;100.00
5814;BME280;2933;52.302;8.134;2023-04-09T02:56:18;101536.41;;;2.74;100.00
5814;BME280;2933;52.302;8.134;2023-04-09T03:01:21;101531.41;;;2.61;100.00
5814;BME280;2933;52.302;8.134;2023-04-09T03:06:23;101532.41;;;2.46;100.00
5814;BME280;2933;52.302;8.134;2023-04-09T03:11:24;101527.19;;;2.52;100.00
5814;BME280;2933;52.302;8.134;2023-04-09T03:16:27;101528.88;;;2.57;100.00
5814;BME280;2933;52.302;8.134;2023-04-09T03:21:28;101519.47;;;2.52;100.00
5814;BME280;2933;52.302;8.134;2023-04-09T03:26:31;101524.69;;;2.44;100.00
5814;BME280;2933;52.302;8.134;2023-04-09T03:31:36;101524.66;;;2.47;100.00
5814;BME280;2933;52.302;8.134;2023-04-09T03:36:38;101511.97;;;2.27;100.00
5814;BME280;2933;52.302;8.134;2023-04-09T03:41:39;101503.44;;;2.20;100.00
5814;BME280;2933;52.302;8.134;2023-04-09T03:46:42;101513.75;;;2.22;100.00
5814;BME280;2933;52.302;8.134;2023-04-09T03:51:44;101504.44;;;2.07;100.00
5814;BME280;2933;52.302;8.134;2023-04-09T03:56:45;101506.97;;;2.10;100.00
5814;BME280;2933;52.302;8.134;2023-04-09T04:01:48;101503.91;;;1.66;100.00
5814;BME280;2933;52.302;8.134;2023-04-09T04:06:50;101504.00;;;1.49;100.00
5814;BME280;2933;52.302;8.134;2023-04-09T04:11:51;101508.34;;;1.45;100.00
5814;BME280;2933;52.302;8.134;2023-04-09T04:16:55;101503.28;;;1.33;100.00
5814;BME280;2933;52.302;8.134;2023-04-09T04:21:57;101502.50;;;1.16;100.00
5814;BME280;2933;52.302;8.134;2023-04-09T04:26:58;101501.63;;;1.21;100.00
5814;BME280;2933;52.302;8.134;2023-04-09T04:32:01;101505.09;;;1.14;100.00
5814;BME280;2933;52.302;8.134;2023-04-09T04:37:03;101508.34;;;1.45;100.00
5814;BME280;2933;52.302;8.134;2023-04-09T04:42:04;101509.19;;;1.46;100.00
5814;BME280;2933;52.302;8.134;2023-04-09T04:47:07;101516.03;;;1.49;100.00
5814;BME280;2933;52.302;8.134;2023-04-09T04:52:09;101513.59;;;1.25;100.00
5814;BME280;2933;52.302;8.134;2023-04-09T04:57:11;101512.69;;;1.37;100.00
5814;BME280;2933;52.302;8.134;2023-04-09T05:02:13;101513.50;;;1.42;100.00
5814;BME280;2933;52.302;8.134;2023-04-09T05:07:15;101519.38;;;1.61;100.00
5814;BME280;2933;52.302;8.134;2023-04-09T05:12:16;101511.72;;;1.54;100.00
5814;BME280;2933;52.302;8.134;2023-04-09T05:17:19;101521.13;;;1.61;100.00
5814;BME280;2933;52.302;8.134;2023-04-09T05:22:21;101508.38;;;1.41;100.00
5814;BME280;2933;52.302;8.134;2023-04-09T05:27:23;101514.34;;;1.43;100.00
5814;BME280;2933;52.302;8.134;2023-04-09T05:32:26;101521.22;;;1.45;100.00
5814;BME280;2933;52.302;8.134;2023-04-09T05:37:28;101521.19;;;1.49;100.00
5814;BME280;2933;52.302;8.134;2023-04-09T05:42:29;101523.75;;;1.53;100.00
5814;BME280;2933;52.302;8.134;2023-04-09T05:47:32;101532.13;;;1.83;100.00
5814;BME280;2933;52.302;8.134;2023-04-09T05:52:34;101530.44;;;1.77;100.00
5814;BME280;2933;52.302;8.134;2023-04-09T05:57:35;101525.31;;;1.74;100.00
5814;BME280;2933;52.302;8.134;2023-04-09T06:02:38;101533.63;;;2.10;100.00
5814;BME280;2933;52.302;8.134;2023-04-09T06:07:40;101531.94;;;2.05;100.00
5814;BME280;2933;52.302;8.134;2023-04-09T06:12:41;101531.06;;;2.09;100.00
5814;BME280;2933;52.302;8.134;2023-04-09T06:17:44;101539.44;;;2.30;100.00
5814;BME280;2933;52.302;8.134;2023-04-09T06:22:46;101535.72;;;2.58;100.00
5814;BME280;2933;52.302;8.134;2023-04-09T06:27:48;101546.09;;;2.52;100.00
5814;BME280;2933;52.302;8.134;2023-04-09T06:32:51;101557.13;;;2.67;100.00
5814;BME280;2933;52.302;8.134;2023-04-09T06:37:52;101550.22;;;2.67;100.00
5814;BME280;2933;52.302;8.134;2023-04-09T06:42:54;101555.19;;;2.86;100.00
5814;BME280;2933;52.302;8.134;2023-04-09T06:47:56;101560.34;;;2.87;100.00
5814;BME280;2933;52.302;8.134;2023-04-09T06:52:58;101560.97;;;3.10;100.00
5814;BME280;2933;52.302;8.134;2023-04-09T06:57:59;101563.25;;;3.31;100.00
5814;BME280;2933;52.302;8.134;2023-04-09T07:03:03;101564.94;;;3.34;100.00
5814;BME280;2933;52.302;8.134;2023-04-09T07:08:07;101565.72;;;3.39;100.00
5814;BME280;2933;52.302;8.134;2023-04-09T07:13:08;101568.09;;;3.56;100.00
5814;BME280;2933;52.302;8.134;2023-04-09T07:18:11;101575.97;;;3.45;100.00
5814;BME280;2933;52.302;8.134;2023-04-09T07:23:12;101577.94;;;3.88;100.00
5814;BME280;2933;52.302;8.134;2023-04-09T07:28:14;101578.00;;;3.84;100.00
5814;BME280;2933;52.302;8.134;2023-04-09T07:33:17;101581.03;;;4.11;100.00
5814;BME280;2933;52.302;8.134;2023-04-09T07:38:19;101582.03;;;4.02;100.00
5814;BME280;2933;52.302;8.134;2023-04-09T07:43:20;101581.75;;;4.20;100.00
5814;BME280;2933;52.302;8.134;2023-04-09T07:48:23;101579.22;;;4.16;100.00
5814;BME280;2933;52.302;8.134;2023-04-09T07:53:25;101577.81;;;4.48;100.00
5814;BME280;2933;52.302;8.134;2023-04-09T07:58:26;101590.34;;;4.69;100.00
5814;BME280;2933;52.302;8.134;2023-04-09T08:03:29;101590.16;;;4.80;100.00
5814;BME280;2933;52.302;8.134;2023-04-09T08:08:30;101591.56;;;4.97;100.00
5814;BME280;2933;52.302;8.134;2023-04-09T08:13:32;101589.63;;;5.08;100.00
5814;BME280;2933;52.302;8.134;2023-04-09T08:18:35;101593.63;;;5.64;100.00
5814;BME280;2933;52.302;8.134;2023-04-09T08:23:36;101593.16;;;5.86;100.00
5814;BME280;2933;52.302;8.134;2023-04-09T08:28:38;101592.94;;;6.31;100.00
5814;BME280;2933;52.302;8.134;2023-04-09T08:33:41;101590.69;;;6.17;100.00
5814;BME280;2933;52.302;8.134;2023-04-09T08:38:42;101602.56;;;6.60;100.00
5814;BME280;2933;52.302;8.134;2023-04-09T08:43:47;101600.59;;;7.02;100.00
5814;BME280;2933;52.302;8.134;2023-04-09T08:48:50;101605.03;;;6.98;100.00
5814;BME280;2933;52.302;8.134;2023-04-09T08:53:55;101597.78;;;6.78;100.00
5814;BME280;2933;52.302;8.134;2023-04-09T08:58:57;101589.25;;;7.04;100.00
5814;BME280;2933;52.302;8.134;2023-04-09T09:04:00;101591.19;;;7.27;100.00
5814;BME280;2933;52.302;8.134;2023-04-09T09:09:05;101584.53;;;7.47;100.00
5814;BME280;2933;52.302;8.134;2023-04-09T09:14:08;101584.84;;;7.93;100.00
5814;BME280;2933;52.302;8.134;2023-04-09T09:19:28;101576.25;;;7.91;100.00
5814;BME280;2933;52.302;8.134;2023-04-09T09:24:30;101581.78;;;8.34;100.00
5814;BME280;2933;52.302;8.134;2023-04-09T09:29:40;101577.38;;;8.36;100.00
5814;BME280;2933;52.302;8.134;2023-04-09T09:34:56;101577.75;;;8.52;100.00
5814;BME280;2933;52.302;8.134;2023-04-09T09:39:59;101574.88;;;8.60;100.00
5814;BME280;2933;52.302;8.134;2023-04-09T09:45:02;101578.91;;;8.92;100.00
5814;BME280;2933;52.302;8.134;2023-04-09T09:50:07;101569.84;;;9.02;100.00
5814;BME280;2933;52.302;8.134;2023-04-09T09:55:12;101566.75;;;9.16;100.00
5814;BME280;2933;52.302;8.134;2023-04-09T10:00:15;101557.75;;;9.47;100.00
5814;BME280;2933;52.302;8.134;2023-04-09T10:05:18;101566.41;;;9.70;100.00
5814;BME280;2933;52.302;8.134;2023-04-09T10:10:24;101565.03;;;10.04;97.19
5814;BME280;2933;52.302;8.134;2023-04-09T10:15:27;101564.59;;;10.35;92.84
5814;BME280;2933;52.302;8.134;2023-04-09T10:20:40;101564.09;;;10.27;90.28
5814;BME280;2933;52.302;8.134;2023-04-09T10:25:44;101555.06;;;10.76;92.23
5814;BME280;2933;52.302;8.134;2023-04-09T10:30:45;101554.63;;;10.25;88.72
5814;BME280;2933;52.302;8.134;2023-04-09T10:35:48;101553.28;;;10.76;93.97
5814;BME280;2933;52.302;8.134;2023-04-09T10:40:50;101543.19;;;10.88;87.94
5814;BME280;2933;52.302;8.134;2023-04-09T10:45:56;101533.59;;;10.88;86.51
5814;BME280;2933;52.302;8.134;2023-04-09T10:51:01;101532.72;;;11.26;85.92
5814;BME280;2933;52.302;8.134;2023-04-09T10:56:13;101524.69;;;11.30;86.69
5814;BME280;2933;52.302;8.134;2023-04-09T11:01:20;101521.03;;;11.70;79.82
5814;BME280;2933;52.302;8.134;2023-04-09T11:06:25;101518.59;;;11.67;78.71
5814;BME280;2933;52.302;8.134;2023-04-09T11:11:26;101510.63;;;12.05;71.10
5814;BME280;2933;52.302;8.134;2023-04-09T11:16:30;101504.97;;;11.95;72.35
5814;BME280;2933;52.302;8.134;2023-04-09T11:21:33;101509.38;;;12.30;66.84
5814;BME280;2933;52.302;8.134;2023-04-09T11:26:35;101502.81;;;12.54;63.98
5814;BME280;2933;52.302;8.134;2023-04-09T11:31:37;101502.91;;;11.84;59.65
5814;BME280;2933;52.302;8.134;2023-04-09T11:36:40;101499.13;;;12.25;62.80
5814;BME280;2933;52.302;8.134;2023-04-09T11:41:42;101495.44;;;12.11;63.05
5814;BME280;2933;52.302;8.134;2023-04-09T11:46:44;101489.31;;;12.46;62.60
5814;BME280;2933;52.302;8.134;2023-04-09T11:51:47;101489.56;;;12.57;59.46
5814;BME280;2933;52.302;8.134;2023-04-09T11:56:49;101484.72;;;12.83;59.17
5814;BME280;2933;52.302;8.134;2023-04-09T12:01:56;101478.78;;;13.12;64.29
5814;BME280;2933;52.302;8.134;2023-04-09T12:06:59;101480.97;;;12.71;63.20
5814;BME280;2933;52.302;8.134;2023-04-09T12:12:01;101484.53;;;13.02;63.75
5814;BME280;2933;52.302;8.134;2023-04-09T12:17:02;101481.75;;;13.05;64.68
5814;BME280;2933;52.302;8.134;2023-04-09T12:22:05;101479.19;;;12.88;65.09
5814;BME280;2933;52.302;8.134;2023-04-09T12:27:07;101479.78;;;12.77;65.02
5814;BME280;2933;52.302;8.134;2023-04-09T12:32:10;101479.09;;;12.57;66.80
5814;BME280;2933;52.302;8.134;2023-04-09T12:37:13;101483.78;;;12.84;66.18
5814;BME280;2933;52.302;8.134;2023-04-09T12:42:14;101479.28;;;12.86;66.55
5814;BME280;2933;52.302;8.134;2023-04-09T12:47:16;101475.50;;;12.92;65.60
5814;BME280;2933;52.302;8.134;2023-04-09T12:52:19;101475.28;;;12.79;64.63
5814;BME280;2933;52.302;8.134;2023-04-09T12:57:21;101477.94;;;12.95;65.78
5814;BME280;2933;52.302;8.134;2023-04-09T13:02:23;101470.22;;;12.76;65.00
5814;BME280;2933;52.302;8.134;2023-04-09T13:07:26;101466.31;;;13.15;65.70
5814;BME280;2933;52.302;8.134;2023-04-09T13:12:28;101467.50;;;13.25;62.86
5814;BME280;2933;52.302;8.134;2023-04-09T13:17:30;101470.59;;;13.64;63.51
5814;BME280;2933;52.302;8.134;2023-04-09T13:22:33;101475.47;;;13.40;62.95
5814;BME280;2933;52.302;8.134;2023-04-09T13:27:35;101462.97;;;12.81;63.91
5814;BME280;2933;52.302;8.134;2023-04-09T13:32:37;101461.03;;;12.85;64.16
5814;BME280;2933;52.302;8.134;2023-04-09T13:37:40;101457.81;;;12.80;65.69
5814;BME280;2933;52.302;8.134;2023-04-09T13:42:42;101456.25;;;12.75;66.99
5814;BME280;2933;52.302;8.134;2023-04-09T13:47:43;101450.50;;;12.69;64.37
5814;BME280;2933;52.302;8.134;2023-04-09T13:52:46;101435.97;;;12.47;63.98
5814;BME280;2933;52.302;8.134;2023-04-09T13:57:48;101428.53;;;12.87;64.45
5814;BME280;2933;52.302;8.134;2023-04-09T14:02:49;101433.97;;;13.31;62.50
5814;BME280;2933;52.302;8.134;2023-04-09T14:07:52;101426.38;;;13.10;61.98
5814;BME280;2933;52.302;8.134;2023-04-09T14:12:54;101423.75;;;13.10;63.09
5814;BME280;2933;52.302;8.134;2023-04-09T14:17:55;101421.38;;;13.21;63.55
5814;BME280;2933;52.302;8.134;2023-04-09T14:22:58;101419.16;;;13.30;60.25
5814;BME280;2933;52.302;8.134;2023-04-09T14:28:00;101418.91;;;13.50;61.35
5814;BME280;2933;52.302;8.134;2023-04-09T14:33:02;101428.38;;;13.37;59.97
5814;BME280;2933;52.302;8.134;2023-04-09T14:38:05;101424.75;;;13.23;59.16
5814;BME280;2933;52.302;8.134;2023-04-09T14:43:06;101406.41;;;13.23;62.17
5814;BME280;2933;52.302;8.134;2023-04-09T14:48:08;101388.25;;;13.04;61.28
5814;BME280;2933;52.302;8.134;2023-04-09T14:53:11;101396.66;;;13.41;62.00
5814;BME280;2933;52.302;8.134;2023-04-09T14:58:13;101389.47;;;13.29;61.72
5814;BME280;2933;52.302;8.134;2023-04-09T15:03:15;101394.88;;;13.26;60.92
5814;BME280;2933;52.302;8.134;2023-04-09T15:08:18;101402.28;;;13.19;59.78
5814;BME280;2933;52.302;8.134;2023-04-09T15:13:19;101406.72;;;13.64;58.71
5814;BME280;2933;52.302;8.134;2023-04-09T15:18:21;101399.72;;;13.79;58.33
5814;BME280;2933;52.302;8.134;2023-04-09T15:23:24;101404.66;;;13.54;58.99
5814;BME280;2933;52.302;8.134;2023-04-09T15:28:25;101392.66;;;13.65;58.03
5814;BME280;2933;52.302;8.134;2023-04-09T15:33:27;101394.03;;;13.25;60.75
5814;BME280;2933;52.302;8.134;2023-04-09T15:38:30;101393.13;;;13.27;58.74
5814;BME280;2933;52.302;8.134;2023-04-09T15:43:31;101386.31;;;12.92;59.09
5814;BME280;2933;52.302;8.134;2023-04-09T15:48:33;101382.88;;;12.59;58.95
5814;BME280;2933;52.302;8.134;2023-04-09T15:53:36;101381.91;;;12.76;58.17
5814;BME280;2933;52.302;8.134;2023-04-09T15:58:37;101384.63;;;12.75;59.82
5814;BME280;2933;52.302;8.134;2023-04-09T16:03:39;101382.44;;;12.83;58.10
5814;BME280;2933;52.302;8.134;2023-04-09T16:08:42;101387.69;;;12.67;59.10
5814;BME280;2933;52.302;8.134;2023-04-09T16:13:43;101383.72;;;12.76;59.16
5814;BME280;2933;52.302;8.134;2023-04-09T16:18:45;101394.03;;;12.47;58.92
5814;BME280;2933;52.302;8.134;2023-04-09T16:23:48;101386.84;;;12.35;59.54
5814;BME280;2933;52.302;8.134;2023-04-09T16:28:49;101383.94;;;12.39;57.79
5814;BME280;2933;52.302;8.134;2023-04-09T16:33:51;101382.44;;;12.35;59.35
5814;BME280;2933;52.302;8.134;2023-04-09T16:38:54;101376.09;;;12.23;60.27
5814;BME280;2933;52.302;8.134;2023-04-09T16:43:55;101365.84;;;12.19;60.25
5814;BME280;2933;52.302;8.134;2023-04-09T16:48:57;101357.03;;;12.04;60.22
5814;BME280;2933;52.302;8.134;2023-04-09T16:54:00;101362.13;;;11.89;60.75
5814;BME280;2933;52.302;8.134;2023-04-09T16:59:01;101362.69;;;11.96;61.37
5814;BME280;2933;52.302;8.134;2023-04-09T17:04:03;101344.19;;;11.82;62.40
5814;BME280;2933;52.302;8.134;2023-04-09T17:09:06;101339.66;;;11.85;61.98
5814;BME280;2933;52.302;8.134;2023-04-09T17:14:07;101339.34;;;11.91;63.65
5814;BME280;2933;52.302;8.134;2023-04-09T17:19:09;101333.28;;;11.73;63.37
5814;BME280;2933;52.302;8.134;2023-04-09T17:24:12;101336.78;;;11.56;64.76
5814;BME280;2933;52.302;8.134;2023-04-09T17:29:13;101333.53;;;11.51;65.79
5814;BME280;2933;52.302;8.134;2023-04-09T17:34:15;101337.63;;;11.39;66.82
5814;BME280;2933;52.302;8.134;2023-04-09T17:39:18;101333.03;;;11.27;67.51
5814;BME280;2933;52.302;8.134;2023-04-09T17:44:20;101327.31;;;11.19;68.01
5814;BME280;2933;52.302;8.134;2023-04-09T17:49:22;101313.94;;;11.07;68.73
5814;BME280;2933;52.302;8.134;2023-04-09T17:54:24;101310.53;;;10.88;68.75
5814;BME280;2933;52.302;8.134;2023-04-09T17:59:26;101315.22;;;10.81;69.96
5814;BME280;2933;52.302;8.134;2023-04-09T18:04:28;101328.97;;;10.67;69.96
5814;BME280;2933;52.302;8.134;2023-04-09T18:09:32;101330.88;;;10.63;70.45
5814;BME280;2933;52.302;8.134;2023-04-09T18:14:33;101322.91;;;10.47;71.47
5814;BME280;2933;52.302;8.134;2023-04-09T18:19:35;101328.06;;;10.30;72.86
5814;BME280;2933;52.302;8.134;2023-04-09T18:24:38;101338.78;;;10.24;74.15
5814;BME280;2933;52.302;8.134;2023-04-09T18:29:39;101334.25;;;10.08;73.91
5814;BME280;2933;52.302;8.134;2023-04-09T18:34:41;101329.44;;;10.18;74.18
5814;BME280;2933;52.302;8.134;2023-04-09T18:39:45;101333.28;;;9.71;77.30
5814;BME280;2933;52.302;8.134;2023-04-09T18:44:47;101329.06;;;9.68;76.08
5814;BME280;2933;52.302;8.134;2023-04-09T18:49:49;101331.16;;;9.60;77.76
5814;BME280;2933;52.302;8.134;2023-04-09T18:54:52;101339.50;;;9.68;78.72
5814;BME280;2933;52.302;8.134;2023-04-09T18:59:53;101347.41;;;9.46;80.12
5814;BME280;2933;52.302;8.134;2023-04-09T19:04:55;101356.00;;;9.28;82.02
5814;BME280;2933;52.302;8.134;2023-04-09T19:09:59;101349.41;;;9.19;82.66
5814;BME280;2933;52.302;8.134;2023-04-09T19:15:00;101356.00;;;9.05;81.56
5814;BME280;2933;52.302;8.134;2023-04-09T19:20:04;101359.34;;;9.09;83.76
5814;BME280;2933;52.302;8.134;2023-04-09T19:25:08;101359.47;;;8.84;85.61
5814;BME280;2933;52.302;8.134;2023-04-09T19:30:11;101351.34;;;8.47;86.91
5814;BME280;2933;52.302;8.134;2023-04-09T19:35:12;101339.06;;;8.03;89.72
5814;BME280;2933;52.302;8.134;2023-04-09T19:40:16;101346.22;;;7.97;91.46
5814;BME280;2933;52.302;8.134;2023-04-09T19:45:17;101350.75;;;7.91;91.87
5814;BME280;2933;52.302;8.134;2023-04-09T19:50:19;101341.88;;;7.72;93.01
5814;BME280;2933;52.302;8.134;2023-04-09T19:55:22;101336.13;;;7.64;94.44
5814;BME280;2933;52.302;8.134;2023-04-09T20:00:24;101339.91;;;7.28;96.83
5814;BME280;2933;52.302;8.134;2023-04-09T20:05:25;101340.06;;;7.23;97.78
5814;BME280;2933;52.302;8.134;2023-04-09T20:10:28;101327.78;;;7.28;97.86
5814;BME280;2933;52.302;8.134;2023-04-09T20:15:30;101323.63;;;6.96;99.81
5814;BME280;2933;52.302;8.134;2023-04-09T20:20:32;101331.69;;;6.88;100.00
5814;BME280;2933;52.302;8.134;2023-04-09T20:25:35;101323.38;;;6.77;100.00
5814;BME280;2933;52.302;8.134;2023-04-09T20:30:36;101322.81;;;6.67;100.00
5814;BME280;2933;52.302;8.134;2023-04-09T20:35:38;101318.25;;;6.47;100.00
5814;BME280;2933;52.302;8.134;2023-04-09T20:40:40;101316.72;;;6.40;100.00
5814;BME280;2933;52.302;8.134;2023-04-09T20:45:42;101312.59;;;6.04;100.00
5814;BME280;2933;52.302;8.134;2023-04-09T20:50:43;101316.31;;;6.24;100.00
5814;BME280;2933;52.302;8.134;2023-04-09T20:55:46;101318.16;;;6.20;100.00
5814;BME280;2933;52.302;8.134;2023-04-09T21:00:48;101330.38;;;6.17;100.00
5814;BME280;2933;52.302;8.134;2023-04-09T21:05:50;101323.13;;;5.96;100.00
5814;BME280;2933;52.302;8.134;2023-04-09T21:10:53;101328.31;;;5.96;100.00
5814;BME280;2933;52.302;8.134;2023-04-09T21:15:55;101331.78;;;5.95;100.00
5814;BME280;2933;52.302;8.134;2023-04-09T21:20:57;101321.66;;;5.88;100.00
5814;BME280;2933;52.302;8.134;2023-04-09T21:26:01;101314.72;;;5.88;100.00
5814;BME280;2933;52.302;8.134;2023-04-09T21:31:03;101301.59;;;5.94;100.00
5814;BME280;2933;52.302;8.134;2023-04-09T21:36:05;101294.56;;;5.66;100.00
5814;BME280;2933;52.302;8.134;2023-04-09T21:41:08;101299.91;;;5.60;100.00
5814;BME280;2933;52.302;8.134;2023-04-09T21:46:10;101292.97;;;5.62;100.00
5814;BME280;2933;52.302;8.134;2023-04-09T21:51:11;101277.34;;;5.64;100.00
5814;BME280;2933;52.302;8.134;2023-04-09T21:56:14;101281.88;;;5.24;100.00
5814;BME280;2933;52.302;8.134;2023-04-09T22:01:16;101271.34;;;5.30;100.00
5814;BME280;2933;52.302;8.134;2023-04-09T22:06:18;101261.03;;;5.29;100.00
5814;BME280;2933;52.302;8.134;2023-04-09T22:11:22;101275.84;;;5.24;100.00
5814;BME280;2933;52.302;8.134;2023-04-09T22:16:25;101276.56;;;4.94;100.00
5814;BME280;2933;52.302;8.134;2023-04-09T22:21:26;101280.34;;;4.81;100.00
5814;BME280;2933;52.302;8.134;2023-04-09T22:26:30;101283.66;;;4.86;100.00
5814;BME280;2933;52.302;8.134;2023-04-09T22:31:31;101285.81;;;5.05;100.00
5814;BME280;2933;52.302;8.134;2023-04-09T22:36:33;101283.81;;;4.80;100.00
5814;BME280;2933;52.302;8.134;2023-04-09T22:41:36;101287.28;;;4.80;100.00
5814;BME280;2933;52.302;8.134;2023-04-09T22:46:37;101287.31;;;4.77;100.00
5814;BME280;2933;52.302;8.134;2023-04-09T22:51:39;101282.72;;;4.54;100.00
5814;BME280;2933;52.302;8.134;2023-04-09T22:56:42;101280.06;;;4.56;100.00
5814;BME280;2933;52.302;8.134;2023-04-09T23:01:43;101276.06;;;4.42;100.00
5814;BME280;2933;52.302;8.134;2023-04-09T23:06:45;101281.25;;;4.42;100.00
5814;BME280;2933;52.302;8.134;2023-04-09T23:11:48;101280.84;;;4.22;100.00
5814;BME280;2933;52.302;8.134;2023-04-09T23:16:49;101291.81;;;4.33;100.00
5814;BME280;2933;52.302;8.134;2023-04-09T23:21:51;101289.75;;;4.08;100.00
5814;BME280;2933;52.302;8.134;2023-04-09T23:26:54;101287.91;;;4.13;100.00
5814;BME280;2933;52.302;8.134;2023-04-09T23:31:56;101288.72;;;4.15;100.00
5814;BME280;2933;52.302;8.134;2023-04-09T23:36:58;101276.19;;;3.97;100.00
5814;BME280;2933;52.302;8.134;2023-04-09T23:42:01;101272.59;;;4.02;100.00
5814;BME280;2933;52.302;8.134;2023-04-09T23:47:02;101268.53;;;3.92;100.00
5814;BME280;2933;52.302;8.134;2023-04-09T23:52:05;101254.72;;;3.93;100.00
5814;BME280;2933;52.302;8.134;2023-04-09T23:57:08;101251.38;;;3.86;100.00
